createdAt,value
2022-10-28T00:01:24.998Z,35.97
2022-10-28T00:03:54.997Z,35.63
2022-10-28T00:06:30.830Z,35.85
2022-10-28T00:08:58.818Z,38.17
2022-10-28T00:11:28.863Z,40.15
2022-10-28T00:13:57.731Z,35.75
2022-10-28T00:16:27.774Z,35.30
2022-10-28T00:18:55.760Z,35.63
2022-10-28T00:21:25.505Z,37.30
2022-10-28T00:23:53.732Z,41.05
2022-10-28T00:26:25.859Z,37.90
2022-10-28T00:28:59.055Z,38.58
2022-10-28T00:31:28.310Z,38.85
2022-10-28T00:33:56.681Z,37.65
2022-10-28T00:36:26.620Z,37.38
2022-10-28T00:38:55.294Z,37.08
2022-10-28T00:41:24.532Z,38.33
2022-10-28T00:43:54.333Z,37.33
2022-10-28T00:46:35.657Z,39.75
2022-10-28T00:49:06.969Z,36.33
2022-10-28T00:51:35.092Z,36.97
2022-10-28T00:54:04.309Z,35.72
2022-10-28T00:56:40.758Z,41.90
2022-10-28T00:59:13.437Z,39.85
2022-10-28T01:01:40.825Z,37.63
2022-10-28T01:04:08.534Z,38.75
2022-10-28T01:06:35.978Z,40.88
2022-10-28T01:09:03.426Z,43.00
2022-10-28T01:11:46.136Z,46.10
2022-10-28T01:14:21.980Z,40.50
2022-10-28T01:16:55.741Z,44.10
2022-10-28T01:19:42.892Z,42.22
2022-10-28T01:22:19.576Z,45.70
2022-10-28T01:24:49.798Z,44.45
2022-10-28T01:27:45.340Z,45.03
2022-10-28T01:30:25.686Z,43.00
2022-10-28T01:32:56.433Z,39.72
2022-10-28T01:35:42.091Z,43.35
2022-10-28T01:38:26.580Z,42.83
2022-10-28T01:40:53.780Z,44.73
2022-10-28T01:43:30.326Z,43.72
2022-10-28T01:46:05.770Z,41.72
2022-10-28T01:48:39.459Z,38.88
2022-10-28T01:51:30.828Z,40.72
2022-10-28T01:54:00.175Z,45.35
2022-10-28T01:56:31.354Z,43.63
2022-10-28T01:59:00.970Z,39.42
2022-10-28T02:01:30.144Z,38.70
2022-10-28T02:03:57.886Z,41.33
2022-10-28T02:06:27.760Z,41.42
2022-10-28T02:09:01.122Z,44.10
2022-10-28T02:11:38.040Z,46.00
2022-10-28T02:14:05.227Z,44.40
2022-10-28T02:16:47.988Z,45.30
2022-10-28T02:19:26.192Z,44.15
2022-10-28T02:22:19.569Z,47.80
2022-10-28T02:25:24.370Z,42.75
2022-10-28T02:28:08.072Z,43.30
2022-10-28T02:30:44.260Z,43.58
2022-10-28T02:33:16.803Z,40.58
2022-10-28T02:35:57.743Z,42.28
2022-10-28T02:38:28.690Z,45.53
2022-10-28T02:40:59.977Z,40.75
2022-10-28T02:43:30.404Z,44.65
2022-10-28T02:45:59.826Z,39.47
2022-10-28T02:48:49.069Z,42.90
2022-10-28T02:51:36.054Z,42.13
2022-10-28T02:54:13.259Z,45.60
2022-10-28T02:56:46.793Z,43.87
2022-10-28T02:59:14.192Z,41.42
2022-10-28T03:01:41.881Z,41.95
2022-10-28T03:04:09.380Z,40.88
2022-10-28T03:06:36.760Z,42.67
2022-10-28T03:09:04.444Z,41.83
2022-10-28T03:11:31.785Z,37.60
2022-10-28T03:13:59.122Z,41.90
2022-10-28T03:16:26.842Z,39.20
2022-10-28T03:18:54.231Z,36.22
2022-10-28T03:21:21.580Z,41.35
2022-10-28T03:23:49.211Z,44.85
2022-10-28T03:26:16.548Z,42.10
2022-10-28T03:28:43.877Z,47.08
2022-10-28T03:31:11.480Z,42.45
2022-10-28T03:33:38.983Z,47.92
2022-10-28T03:36:06.706Z,44.63
2022-10-28T03:38:34.308Z,44.22
2022-10-28T03:41:01.649Z,45.45
2022-10-28T03:43:28.989Z,45.10
2022-10-28T03:45:56.568Z,44.10
2022-10-28T03:48:23.948Z,45.58
2022-10-28T03:50:54.821Z,46.75
2022-10-28T03:53:26.278Z,48.83
2022-10-28T03:55:56.191Z,47.83
2022-10-28T03:58:24.067Z,47.22
2022-10-28T04:00:52.591Z,46.33
2022-10-28T04:03:21.594Z,52.88
2022-10-28T04:05:49.004Z,46.95
2022-10-28T04:08:17.078Z,45.22
2022-10-28T04:10:47.499Z,45.40
2022-10-28T04:13:15.618Z,45.63
2022-10-28T04:15:42.980Z,50.70
2022-10-28T04:18:10.718Z,47.08
2022-10-28T04:20:38.210Z,48.45
2022-10-28T04:23:05.857Z,53.13
2022-10-28T04:25:33.496Z,53.00
2022-10-28T04:28:00.843Z,54.38
2022-10-28T04:30:28.191Z,50.78
2022-10-28T04:32:55.823Z,55.47
2022-10-28T04:35:23.655Z,53.70
2022-10-28T04:37:51.198Z,58.28
2022-10-28T04:40:19.207Z,51.78
2022-10-28T04:42:46.556Z,57.50
2022-10-28T04:45:15.701Z,52.62
2022-10-28T04:47:43.303Z,50.70
2022-10-28T04:50:10.651Z,49.13
2022-10-28T04:52:37.981Z,51.58
2022-10-28T04:55:06.069Z,55.42
2022-10-28T04:57:33.391Z,52.35
2022-10-28T05:00:00.717Z,53.97
2022-10-28T05:02:28.366Z,50.47
2022-10-28T05:05:00.247Z,56.37
2022-10-28T05:07:27.872Z,50.38
2022-10-28T05:09:55.328Z,51.70
2022-10-28T05:12:22.693Z,53.63
2022-10-28T05:14:53.048Z,55.95
2022-10-28T05:17:20.632Z,57.92
2022-10-28T05:19:48.031Z,56.28
2022-10-28T05:22:15.723Z,59.25
2022-10-28T05:24:43.139Z,58.42
2022-10-28T05:27:10.507Z,60.95
2022-10-28T05:29:38.196Z,53.58
2022-10-28T05:34:38.256Z,59.88
2022-10-28T05:37:05.590Z,62.58
2022-10-28T05:39:32.924Z,62.85
2022-10-28T05:42:00.574Z,62.00
2022-10-28T05:44:28.222Z,65.00
2022-10-28T05:46:56.552Z,57.78
2022-10-28T05:49:24.165Z,55.55
2022-10-28T05:51:51.516Z,54.78
2022-10-28T05:54:19.030Z,52.83
2022-10-28T05:56:46.674Z,55.95
2022-10-28T05:59:14.012Z,51.58
2022-10-28T06:01:41.491Z,45.65
2022-10-28T06:04:09.233Z,51.28
2022-10-28T06:06:36.607Z,46.90
2022-10-28T06:09:04.146Z,50.75
2022-10-28T06:11:30.264Z,48.45
2022-10-28T06:13:57.666Z,45.40
2022-10-28T06:16:25.010Z,45.72
2022-10-28T06:18:52.652Z,46.55
2022-10-28T06:21:20.024Z,44.47
2022-10-28T06:23:47.527Z,49.03
2022-10-28T06:26:15.205Z,46.40
2022-10-28T06:28:45.764Z,46.33
2022-10-28T06:31:13.454Z,48.28
2022-10-28T06:33:41.139Z,44.53
2022-10-28T06:36:08.673Z,44.90
2022-10-28T06:38:36.014Z,47.00
2022-10-28T06:41:03.825Z,46.72
2022-10-28T06:43:31.318Z,47.60
2022-10-28T06:46:03.719Z,36.17
2022-10-28T06:48:33.267Z,39.45
2022-10-28T06:51:00.656Z,37.60
2022-10-28T06:53:27.993Z,40.22
2022-10-28T06:55:57.049Z,42.13
2022-10-28T06:58:25.220Z,35.42
2022-10-28T07:00:53.268Z,35.70
2022-10-28T07:03:22.404Z,33.42
2022-10-28T07:05:51.553Z,33.67
2022-10-28T07:08:18.947Z,33.45
2022-10-28T07:10:57.086Z,40.30
2022-10-28T07:13:24.981Z,35.92
2022-10-28T07:15:57.319Z,34.25
2022-10-28T07:18:26.226Z,33.03
2022-10-28T07:20:54.261Z,34.30
2022-10-28T07:23:21.634Z,32.30
2022-10-28T07:25:56.085Z,38.95
2022-10-28T07:28:24.935Z,33.78
2022-10-28T07:30:52.672Z,32.13
2022-10-28T07:33:20.144Z,35.88
2022-10-28T07:35:48.106Z,35.53
2022-10-28T07:38:15.509Z,33.42
2022-10-28T07:40:42.942Z,34.78
2022-10-28T07:43:10.558Z,38.38
2022-10-28T07:45:38.064Z,38.17
2022-10-28T07:48:05.736Z,41.78
2022-10-28T07:50:33.679Z,35.17
2022-10-28T07:53:01.296Z,33.58
2022-10-28T07:55:28.952Z,34.10
2022-10-28T07:57:56.771Z,32.38
2022-10-28T08:00:24.414Z,33.47
2022-10-28T08:02:52.025Z,35.92
2022-10-28T08:05:19.432Z,37.42
2022-10-28T08:07:47.930Z,33.83
2022-10-28T08:10:15.614Z,32.03
2022-10-28T08:12:43.051Z,30.45
2022-10-28T08:15:10.726Z,32.50
2022-10-28T08:17:38.419Z,35.50
2022-10-28T08:20:06.222Z,31.15
2022-10-28T08:22:33.592Z,35.40
2022-10-28T08:25:01.223Z,35.85
2022-10-28T08:27:28.590Z,36.00
2022-10-28T08:29:55.979Z,34.83
2022-10-28T08:32:23.636Z,28.85
2022-10-28T08:34:50.988Z,30.80
2022-10-28T08:37:18.583Z,28.65
2022-10-28T08:39:46.352Z,28.40
2022-10-28T08:42:38.148Z,24.55
2022-10-28T08:45:43.438Z,28.10
2022-10-28T08:48:13.697Z,26.60
2022-10-28T08:50:48.591Z,27.02
2022-10-28T08:53:35.561Z,28.60
2022-10-28T08:56:25.521Z,25.80
2022-10-28T08:58:54.818Z,31.20
2022-10-28T09:01:41.577Z,26.60
2022-10-28T09:04:36.299Z,23.87
2022-10-28T09:07:04.062Z,31.37
2022-10-28T09:09:31.929Z,28.25
2022-10-28T09:12:16.180Z,26.55
2022-10-28T09:15:28.397Z,25.62
2022-10-28T09:17:59.757Z,27.60
2022-10-28T09:20:52.171Z,24.27
2022-10-28T09:23:32.466Z,25.75
2022-10-28T09:26:17.840Z,22.67
2022-10-28T09:29:10.146Z,24.67
2022-10-28T09:32:05.331Z,28.38
2022-10-28T09:34:47.901Z,29.48
2022-10-28T09:37:29.566Z,24.37
2022-10-28T09:40:03.478Z,23.98
2022-10-28T09:42:34.880Z,25.20
2022-10-28T09:45:06.823Z,26.10
2022-10-28T09:47:42.298Z,26.40
2022-10-28T09:53:17.978Z,24.58
2022-10-28T09:55:45.414Z,27.65
2022-10-28T09:58:13.882Z,23.27
2022-10-28T10:00:41.286Z,27.90
2022-10-28T10:03:08.910Z,25.92
2022-10-28T10:05:40.944Z,26.62
2022-10-28T10:08:14.512Z,23.83
2022-10-28T10:10:48.136Z,25.62
2022-10-28T10:13:17.920Z,26.12
2022-10-28T10:15:55.142Z,27.87
2022-10-28T10:18:26.152Z,25.88
2022-10-28T10:21:01.441Z,26.05
2022-10-28T10:23:37.059Z,27.10
2022-10-28T10:26:09.717Z,28.90
2022-10-28T10:28:49.662Z,26.00
2022-10-28T10:31:20.787Z,25.08
2022-10-28T10:33:53.632Z,27.02
2022-10-28T10:36:23.799Z,26.27
2022-10-28T10:38:56.623Z,27.80
2022-10-28T10:41:41.284Z,27.13
2022-10-28T10:44:20.863Z,29.63
2022-10-28T10:47:05.088Z,28.17
2022-10-28T10:49:35.312Z,24.63
2022-10-28T10:52:07.546Z,30.20
2022-10-28T10:54:36.460Z,23.10
2022-10-28T10:57:16.067Z,26.45
2022-10-28T10:59:48.445Z,25.27
2022-10-28T11:02:31.832Z,26.27
2022-10-28T11:05:04.642Z,22.92
2022-10-28T11:07:32.635Z,26.52
2022-10-28T11:10:00.629Z,24.98
2022-10-28T11:12:35.590Z,23.30
2022-10-28T11:15:21.346Z,24.52
2022-10-28T11:18:00.611Z,24.10
2022-10-28T11:20:34.729Z,25.88
2022-10-28T11:23:13.015Z,27.00
2022-10-28T11:25:43.652Z,23.92
2022-10-28T11:28:29.728Z,22.45
2022-10-28T11:34:05.446Z,27.52
2022-10-28T11:36:39.066Z,25.67
2022-10-28T11:39:34.006Z,25.60
2022-10-28T11:42:07.075Z,27.17
2022-10-28T11:47:37.796Z,28.40
2022-10-28T11:50:24.628Z,25.73
2022-10-28T11:53:16.917Z,28.55
2022-10-28T11:56:04.052Z,30.52
2022-10-28T11:58:55.992Z,29.80
2022-10-28T12:01:49.310Z,25.73
2022-10-28T12:04:38.915Z,29.50
2022-10-28T12:07:28.604Z,25.80
2022-10-28T12:10:12.460Z,25.85
2022-10-28T12:12:59.907Z,33.28
2022-10-28T12:15:43.966Z,29.92
2022-10-28T12:18:14.180Z,28.42
2022-10-28T12:21:00.862Z,25.95
2022-10-28T12:23:29.663Z,29.12
2022-10-28T12:25:58.958Z,25.90
2022-10-28T12:28:30.620Z,27.92
2022-10-28T12:30:58.583Z,29.55
2022-10-28T12:33:33.341Z,27.90
2022-10-28T12:36:19.258Z,28.90
2022-10-28T12:39:01.256Z,29.25
2022-10-28T12:42:03.280Z,27.65
2022-10-28T12:44:32.745Z,31.75
2022-10-28T12:47:20.071Z,32.95
2022-10-28T12:50:07.859Z,31.33
2022-10-28T12:52:49.689Z,30.85
2022-10-28T12:55:32.106Z,36.08
2022-10-28T12:58:04.994Z,30.05
2022-10-28T13:00:37.402Z,28.85
2022-10-28T13:03:09.980Z,31.23
2022-10-28T13:05:42.003Z,28.12
2022-10-28T13:08:43.551Z,28.77
2022-10-28T13:11:29.253Z,28.95
2022-10-28T13:13:56.847Z,30.33
2022-10-28T13:16:44.261Z,28.95
2022-10-28T13:19:46.411Z,30.88
2022-10-28T13:22:28.490Z,32.63
2022-10-28T13:25:17.594Z,29.37
2022-10-28T13:27:45.424Z,30.77
2022-10-28T13:30:20.063Z,30.98
2022-10-28T13:33:04.486Z,30.05
2022-10-28T13:35:32.307Z,30.35
2022-10-28T13:38:00.420Z,31.70
2022-10-28T13:40:30.394Z,29.83
2022-10-28T13:42:59.044Z,31.25
2022-10-28T13:45:48.279Z,30.25
2022-10-28T13:48:43.433Z,31.48
2022-10-28T13:51:10.736Z,31.90
2022-10-28T13:53:47.273Z,35.70
2022-10-28T13:56:22.864Z,32.60
2022-10-28T13:58:56.005Z,32.17
2022-10-28T14:01:42.067Z,33.42
2022-10-28T14:04:22.404Z,34.20
2022-10-28T14:06:50.389Z,34.17
2022-10-28T14:09:30.025Z,37.50
2022-10-28T14:12:17.630Z,34.20
2022-10-28T14:14:59.059Z,34.65
2022-10-28T14:17:38.363Z,36.58
2022-10-28T14:20:20.912Z,37.38
2022-10-28T14:22:48.410Z,31.98
2022-10-28T14:25:51.659Z,36.63
2022-10-28T14:28:27.498Z,40.22
2022-10-28T14:31:11.414Z,39.17
2022-10-28T14:33:50.755Z,44.50
2022-10-28T14:36:18.462Z,39.30
2022-10-28T14:38:51.546Z,41.25
2022-10-28T14:41:34.468Z,43.33
2022-10-28T14:44:21.885Z,40.05
2022-10-28T14:46:52.150Z,41.58
2022-10-28T14:49:30.659Z,36.55
2022-10-28T14:52:08.788Z,39.65
2022-10-28T14:54:40.887Z,39.90
2022-10-28T14:57:08.997Z,37.63
2022-10-28T14:59:38.341Z,37.75
2022-10-28T15:02:17.439Z,40.20
2022-10-28T15:04:47.095Z,42.17
2022-10-28T15:07:16.689Z,35.63
2022-10-28T15:09:45.319Z,42.17
2022-10-28T15:12:17.741Z,40.60
2022-10-28T15:14:53.087Z,40.67
2022-10-28T15:17:23.545Z,36.55
2022-10-28T15:19:58.954Z,39.17
2022-10-28T15:22:31.296Z,41.83
2022-10-28T15:25:08.185Z,40.50
2022-10-28T15:27:37.468Z,37.03
2022-10-28T15:30:19.045Z,35.88
2022-10-28T15:32:46.712Z,41.78
2022-10-28T15:35:38.476Z,43.30
2022-10-28T15:38:25.711Z,43.65
2022-10-28T15:40:53.135Z,44.78
2022-10-28T15:43:28.473Z,41.50
2022-10-28T15:46:09.862Z,46.08
2022-10-28T15:48:37.840Z,46.67
2022-10-28T15:51:18.086Z,46.78
2022-10-28T15:53:53.845Z,45.70
2022-10-28T15:56:25.717Z,46.67
2022-10-28T15:58:59.526Z,42.95
2022-10-28T16:01:38.195Z,40.08
2022-10-28T16:04:27.637Z,44.20
2022-10-28T16:06:57.544Z,46.92
2022-10-28T16:09:28.190Z,45.55
2022-10-28T16:11:57.614Z,50.05
2022-10-28T16:15:00.754Z,50.25
2022-10-28T16:17:33.784Z,53.63
2022-10-28T16:20:05.104Z,52.65
2022-10-28T16:22:35.166Z,52.33
2022-10-28T16:25:08.858Z,53.53
2022-10-28T16:27:36.218Z,49.38
2022-10-28T16:30:04.944Z,49.40
2022-10-28T16:32:40.143Z,49.35
2022-10-28T16:35:15.286Z,47.55
2022-10-28T16:37:44.777Z,46.80
2022-10-28T16:40:37.663Z,54.78
2022-10-28T16:43:01.561Z,53.70
2022-10-28T16:45:29.222Z,49.40
2022-10-28T16:47:56.745Z,53.75
2022-10-28T16:50:24.347Z,55.33
2022-10-28T16:52:54.456Z,59.80
2022-10-28T16:55:21.905Z,58.10
2022-10-28T16:57:49.263Z,59.40
2022-10-28T17:00:17.437Z,58.22
2022-10-28T17:02:45.301Z,61.80
2022-10-28T17:05:19.774Z,51.55
2022-10-28T17:10:15.432Z,58.45
2022-10-28T17:12:42.966Z,59.38
2022-10-28T17:15:11.214Z,62.45
2022-10-28T17:17:58.314Z,58.60
2022-10-28T17:20:26.115Z,61.17
2022-10-28T17:22:53.783Z,61.15
2022-10-28T17:25:21.695Z,58.33
2022-10-28T17:27:49.394Z,61.05
2022-10-28T17:30:17.924Z,64.55
2022-10-28T17:32:49.347Z,61.25
2022-10-28T17:35:18.485Z,57.80
2022-10-28T17:37:45.980Z,64.97
2022-10-28T17:40:13.386Z,62.33
2022-10-28T17:42:41.067Z,62.70
2022-10-28T17:45:09.973Z,61.70
2022-10-28T17:47:37.403Z,70.55
2022-10-28T17:50:05.707Z,62.65
2022-10-28T17:52:37.290Z,64.40
2022-10-28T17:55:07.148Z,57.62
2022-10-28T17:57:34.703Z,60.53
2022-10-28T18:00:02.248Z,62.60
2022-10-28T18:02:40.617Z,62.08
2022-10-28T18:05:08.964Z,55.08
2022-10-28T18:07:36.832Z,61.80
2022-10-28T18:10:04.860Z,61.15
2022-10-28T18:12:33.080Z,66.72
2022-10-28T18:15:01.067Z,71.03
2022-10-28T18:17:28.786Z,68.57
2022-10-28T18:19:58.647Z,64.57
2022-10-28T18:24:59.420Z,66.57
2022-10-28T18:27:29.427Z,63.85
2022-10-28T18:29:57.276Z,67.47
2022-10-28T18:32:25.154Z,68.90
2022-10-28T18:34:52.930Z,65.05
2022-10-28T18:37:21.419Z,64.82
2022-10-28T18:39:49.840Z,75.05
2022-10-28T18:42:21.936Z,63.97
2022-10-28T18:44:49.907Z,62.50
2022-10-28T18:47:17.839Z,67.87
2022-10-28T18:49:45.915Z,70.37
2022-10-28T18:52:13.967Z,67.32
2022-10-28T18:54:41.798Z,74.15
2022-10-28T18:57:09.720Z,74.55
2022-10-28T18:59:52.359Z,68.62
2022-10-28T19:02:25.382Z,72.43
2022-10-28T19:04:53.307Z,75.65
2022-10-28T19:07:20.834Z,71.85
2022-10-28T19:09:48.208Z,72.85
2022-10-28T19:12:16.571Z,72.40
2022-10-28T19:14:44.336Z,79.00
2022-10-28T19:17:12.869Z,88.40
2022-10-28T19:19:40.718Z,74.55
2022-10-28T19:22:13.408Z,76.78
2022-10-28T19:24:41.518Z,64.68
2022-10-28T19:27:09.291Z,71.45
2022-10-28T19:32:09.461Z,72.65
2022-10-28T19:34:37.254Z,65.35
2022-10-28T19:37:04.886Z,71.55
2022-10-28T19:39:32.668Z,76.37
2022-10-28T19:42:00.065Z,66.30
2022-10-28T19:44:27.800Z,70.97
2022-10-28T19:46:55.566Z,71.62
2022-10-28T19:49:27.802Z,66.55
2022-10-28T19:51:57.453Z,75.28
2022-10-28T19:54:24.817Z,70.30
2022-10-28T19:56:52.330Z,72.97
2022-10-28T19:59:21.146Z,63.55
2022-10-28T20:01:49.977Z,73.93
2022-10-28T20:04:18.010Z,70.28
2022-10-28T20:06:45.412Z,71.00
2022-10-28T20:09:13.208Z,62.78
2022-10-28T20:11:41.269Z,65.72
2022-10-28T20:14:12.101Z,69.72
2022-10-28T20:16:42.551Z,73.97
2022-10-28T20:19:11.050Z,64.57
2022-10-28T20:21:39.406Z,64.45
2022-10-28T20:24:07.349Z,69.03
2022-10-28T20:26:36.644Z,61.50
2022-10-28T20:29:07.065Z,72.35
2022-10-28T20:31:34.847Z,65.32
2022-10-28T20:34:06.032Z,68.43
2022-10-28T20:36:38.712Z,68.65
2022-10-28T20:39:17.339Z,68.40
2022-10-28T20:41:46.083Z,63.83
2022-10-28T20:44:13.818Z,58.92
2022-10-28T20:46:41.601Z,57.03
2022-10-28T20:49:09.907Z,62.97
2022-10-28T20:51:37.565Z,55.70
2022-10-28T20:54:05.281Z,55.10
2022-10-28T20:56:36.226Z,53.83
2022-10-28T20:59:04.292Z,58.38
2022-10-28T21:01:33.678Z,66.28
2022-10-28T21:04:04.357Z,60.85
2022-10-28T21:06:32.449Z,57.72
2022-10-28T21:08:59.795Z,65.12
2022-10-28T21:11:28.021Z,57.03
2022-10-28T21:13:58.118Z,63.10
2022-10-28T21:16:26.862Z,63.55
2022-10-28T21:18:54.686Z,56.50
2022-10-28T21:21:23.957Z,63.63
2022-10-28T21:23:51.310Z,59.55
2022-10-28T21:26:18.854Z,57.53
2022-10-28T21:28:53.234Z,59.65
2022-10-28T21:31:21.334Z,53.33
2022-10-28T21:36:19.645Z,57.13
2022-10-28T21:38:47.435Z,50.03
2022-10-28T21:41:19.777Z,50.28
2022-10-28T21:43:49.050Z,49.05
2022-10-28T21:46:17.704Z,54.70
2022-10-28T21:48:45.380Z,49.60
2022-10-28T21:51:15.132Z,51.17
2022-10-28T21:53:44.421Z,48.42
2022-10-28T21:56:17.437Z,49.60
2022-10-28T21:58:47.900Z,54.72
2022-10-28T22:01:20.266Z,56.00
2022-10-28T22:03:48.363Z,51.78
2022-10-28T22:06:15.722Z,50.30
2022-10-28T22:08:43.106Z,48.35
2022-10-28T22:11:19.332Z,50.58
2022-10-28T22:13:48.688Z,53.87
2022-10-28T22:16:17.785Z,54.05
2022-10-28T22:18:45.546Z,54.58
2022-10-28T22:21:15.588Z,52.80
2022-10-28T22:23:43.560Z,53.08
2022-10-28T22:26:13.632Z,53.30
2022-10-28T22:28:41.390Z,47.88
2022-10-28T22:31:11.322Z,55.65
2022-10-28T22:33:38.840Z,50.33
2022-10-28T22:36:08.481Z,51.13
2022-10-28T22:38:36.145Z,46.95
2022-10-28T22:41:07.564Z,52.47
2022-10-28T22:43:34.952Z,54.80
2022-10-28T22:46:03.400Z,53.70
2022-10-28T22:48:31.346Z,56.97
2022-10-28T22:50:59.067Z,56.42
2022-10-28T22:53:26.978Z,57.17
2022-10-28T22:55:54.922Z,59.70
2022-10-28T22:58:23.385Z,58.83
2022-10-28T23:00:51.124Z,65.32
2022-10-28T23:03:19.016Z,59.20
2022-10-28T23:05:46.352Z,57.35
2022-10-28T23:08:17.196Z,55.70
2022-10-28T23:10:44.565Z,58.15
2022-10-28T23:13:12.782Z,62.00
2022-10-28T23:15:40.435Z,67.45
2022-10-28T23:18:07.833Z,61.30
2022-10-28T23:20:36.378Z,61.58
2022-10-28T23:23:04.213Z,56.33
2022-10-28T23:25:31.570Z,56.35
2022-10-28T23:27:59.191Z,52.95
2022-10-28T23:30:26.915Z,56.60
2022-10-28T23:32:57.214Z,53.38
2022-10-28T23:35:25.153Z,53.30
2022-10-28T23:37:53.003Z,55.67
2022-10-28T23:40:20.616Z,61.95
2022-10-28T23:42:48.026Z,63.75
2022-10-28T23:45:15.732Z,61.20
2022-10-28T23:47:43.136Z,65.90
2022-10-28T23:50:11.074Z,68.05
2022-10-28T23:52:38.698Z,60.47
2022-10-28T23:55:06.388Z,63.05
2022-10-28T23:57:33.951Z,74.35
